RJOP(METAR)
12/04 19:00
METAR RJOP 041000Z 30015KT 260V330 9999 FEW030 BKN130 13/06 Q1023
RMK 1CU030 7AC130 A3021=
戻る
トップページへ戻る
IMOC Co,.Ltd.